createdAt,value
2022-10-11T00:01:14.965Z,101168.03
2022-10-11T00:03:41.140Z,101164.41
2022-10-11T00:06:09.131Z,101168.91
2022-10-11T00:08:35.612Z,101175.84
2022-10-11T00:11:07.230Z,101180.78
2022-10-11T00:13:33.588Z,101187.81
2022-10-11T00:16:00.005Z,101190.31
2022-10-11T00:18:26.463Z,101198.66
2022-10-11T00:21:07.766Z,101207.94
2022-10-11T00:23:34.129Z,101208.34
2022-10-11T00:26:02.293Z,101221.72
2022-10-11T00:28:29.187Z,101212.56
2022-10-11T00:30:55.487Z,101217.34
2022-10-11T00:33:21.906Z,101230.00
2022-10-11T00:35:48.910Z,101226.06
2022-10-11T00:38:15.363Z,101231.09
2022-10-11T00:40:41.521Z,101238.06
2022-10-11T00:43:18.354Z,101239.31
2022-10-11T00:45:56.265Z,101246.63
2022-10-11T00:48:44.582Z,101241.25
2022-10-11T00:51:20.731Z,101240.53
2022-10-11T00:53:49.516Z,101252.25
2022-10-11T00:56:27.869Z,101257.03
2022-10-11T00:58:56.476Z,101258.22
2022-10-11T01:01:22.824Z,101264.09
2022-10-11T01:03:48.951Z,101260.50
2022-10-11T01:06:15.104Z,101262.59
2022-10-11T01:08:41.978Z,101265.31
2022-10-11T01:11:14.721Z,101260.97
2022-10-11T01:13:54.636Z,101267.66
2022-10-11T01:16:31.367Z,101267.31
2022-10-11T01:19:12.600Z,101279.63
2022-10-11T01:22:03.703Z,101289.19
2022-10-11T01:24:57.517Z,101288.63
2022-10-11T01:27:49.985Z,101284.13
2022-10-11T01:30:24.402Z,101296.53
2022-10-11T01:33:16.160Z,101297.41
2022-10-11T01:35:49.945Z,101301.69
2022-10-11T01:38:33.029Z,101305.06
2022-10-11T01:41:06.175Z,101303.84
2022-10-11T01:43:35.110Z,101310.41
2022-10-11T01:46:04.296Z,101316.97
2022-10-11T01:48:30.582Z,101315.28
2022-10-11T01:50:58.804Z,101320.72
2022-10-11T01:53:42.517Z,101320.22
2022-10-11T01:56:38.406Z,101320.72
2022-10-11T01:59:24.430Z,101325.19
2022-10-11T02:02:07.579Z,101327.13
2022-10-11T02:04:44.963Z,101332.56
2022-10-11T02:07:31.343Z,101327.25
2022-10-11T02:10:14.681Z,101328.47
2022-10-11T02:12:48.972Z,101338.41
2022-10-11T02:15:17.494Z,101338.75
2022-10-11T02:17:50.039Z,101339.81
2022-10-11T02:20:21.910Z,101345.88
2022-10-11T02:22:51.770Z,101343.19
2022-10-11T02:25:24.777Z,101346.34
2022-10-11T02:27:54.789Z,101346.84
2022-10-11T02:30:20.893Z,101356.28
2022-10-11T02:32:48.708Z,101361.34
2022-10-11T02:35:15.325Z,101354.81
2022-10-11T02:38:05.975Z,101355.16
2022-10-11T02:40:44.594Z,101365.22
2022-10-11T02:43:33.008Z,101367.97
2022-10-11T02:46:01.631Z,101368.34
2022-10-11T02:48:29.463Z,101371.44
2022-10-11T02:50:57.237Z,101371.16
2022-10-11T02:53:24.783Z,101377.59
2022-10-11T02:55:52.891Z,101374.28
2022-10-11T02:58:19.386Z,101374.06
2022-10-11T03:00:45.770Z,101379.97
2022-10-11T03:03:12.110Z,101383.69
2022-10-11T03:05:41.524Z,101380.66
2022-10-11T03:08:08.976Z,101388.00
2022-10-11T03:10:35.250Z,101393.97
2022-10-11T03:13:01.509Z,101396.94
2022-10-11T03:15:27.618Z,101404.53
2022-10-11T03:17:54.078Z,101405.63
2022-10-11T03:20:20.348Z,101412.13
2022-10-11T03:22:46.451Z,101407.66
2022-10-11T03:25:12.629Z,101420.59
2022-10-11T03:27:38.722Z,101422.72
2022-10-11T03:30:05.461Z,101430.78
2022-10-11T03:32:31.602Z,101434.44
2022-10-11T03:34:57.871Z,101441.88
2022-10-11T03:37:23.989Z,101441.03
2022-10-11T03:39:50.393Z,101437.00
2022-10-11T03:42:16.998Z,101443.59
2022-10-11T03:44:43.154Z,101444.75
2022-10-11T03:47:09.942Z,101450.41
2022-10-11T03:49:39.875Z,101454.88
2022-10-11T03:52:08.831Z,101455.94
2022-10-11T03:54:34.949Z,101457.09
2022-10-11T03:57:01.062Z,101465.94
2022-10-11T03:59:27.173Z,101463.91
2022-10-11T04:01:53.360Z,101469.03
2022-10-11T04:04:19.520Z,101466.47
2022-10-11T04:06:45.624Z,101480.97
2022-10-11T04:09:11.763Z,101477.66
2022-10-11T04:11:37.871Z,101479.13
2022-10-11T04:14:04.009Z,101482.03
2022-10-11T04:16:30.125Z,101486.47
2022-10-11T04:18:56.235Z,101484.16
2022-10-11T04:21:22.380Z,101488.50
2022-10-11T04:23:48.492Z,101489.47
2022-10-11T04:26:14.589Z,101483.81
2022-10-11T04:28:40.803Z,101495.41
2022-10-11T04:31:08.019Z,101492.13
2022-10-11T04:33:34.353Z,101502.66
2022-10-11T04:36:00.578Z,101499.38
2022-10-11T04:38:26.685Z,101503.94
2022-10-11T04:40:52.783Z,101511.72
2022-10-11T04:43:19.125Z,101501.72
2022-10-11T04:45:45.329Z,101507.56
2022-10-11T04:48:11.522Z,101506.59
2022-10-11T04:50:37.722Z,101501.38
2022-10-11T04:53:06.990Z,101511.94
2022-10-11T04:55:33.118Z,101510.53
2022-10-11T04:57:59.206Z,101511.38
2022-10-11T05:00:25.314Z,101515.00
2022-10-11T05:02:53.017Z,101516.28
2022-10-11T05:05:19.137Z,101525.31
2022-10-11T05:07:45.248Z,101525.56
2022-10-11T05:10:11.759Z,101532.38
2022-10-11T05:12:40.647Z,101535.25
2022-10-11T05:15:07.494Z,101536.63
2022-10-11T05:17:33.830Z,101537.56
2022-10-11T05:19:59.943Z,101549.69
2022-10-11T05:22:26.078Z,101552.34
2022-10-11T05:24:52.190Z,101558.94
2022-10-11T05:27:18.300Z,101565.31
2022-10-11T05:29:44.455Z,101562.53
2022-10-11T05:32:10.554Z,101570.72
2022-10-11T05:34:36.678Z,101572.19
2022-10-11T05:37:02.973Z,101576.66
2022-10-11T05:39:29.187Z,101577.38
2022-10-11T05:41:55.770Z,101568.94
2022-10-11T05:44:21.892Z,101578.22
2022-10-11T05:46:48.007Z,101586.59
2022-10-11T05:49:14.110Z,101596.41
2022-10-11T05:51:40.222Z,101587.44
2022-10-11T05:54:06.346Z,101586.03
2022-10-11T05:56:32.452Z,101593.91
2022-10-11T05:59:02.222Z,101600.00
2022-10-11T06:01:28.781Z,101603.19
2022-10-11T06:03:55.932Z,101610.00
2022-10-11T06:06:22.214Z,101604.19
2022-10-11T06:08:48.618Z,101607.59
2022-10-11T06:11:17.896Z,101597.19
2022-10-11T06:13:44.544Z,101602.19
2022-10-11T06:16:11.124Z,101601.97
2022-10-11T06:18:37.235Z,101609.13
2022-10-11T06:21:03.982Z,101610.34
2022-10-11T06:23:30.097Z,101615.25
2022-10-11T06:26:06.101Z,101624.72
2022-10-11T06:28:33.916Z,101619.59
2022-10-11T06:31:01.233Z,101627.28
2022-10-11T06:33:27.415Z,101631.06
2022-10-11T06:36:01.852Z,101629.13
2022-10-11T06:38:28.297Z,101636.19
2022-10-11T06:40:54.504Z,101633.78
2022-10-11T06:43:21.960Z,101642.03
2022-10-11T06:45:48.403Z,101645.72
2022-10-11T06:48:14.885Z,101646.47
2022-10-11T06:50:59.094Z,101651.59
2022-10-11T06:53:26.507Z,101653.78
2022-10-11T06:55:52.616Z,101664.97
2022-10-11T06:58:19.186Z,101659.88
2022-10-11T07:00:45.327Z,101667.28
2022-10-11T07:03:11.498Z,101665.22
2022-10-11T07:05:37.612Z,101671.41
2022-10-11T07:08:03.827Z,101667.41
2022-10-11T07:10:29.935Z,101680.41
2022-10-11T07:12:56.059Z,101680.03
2022-10-11T07:15:22.373Z,101681.03
2022-10-11T07:17:48.478Z,101687.81
2022-10-11T07:20:14.614Z,101688.09
2022-10-11T07:22:40.734Z,101682.47
2022-10-11T07:25:07.277Z,101684.69
2022-10-11T07:27:33.394Z,101687.63
2022-10-11T07:29:59.507Z,101690.91
2022-10-11T07:32:25.661Z,101701.22
2022-10-11T07:34:51.918Z,101700.84
2022-10-11T07:37:18.029Z,101704.13
2022-10-11T07:39:44.159Z,101712.53
2022-10-11T07:42:10.273Z,101710.25
2022-10-11T07:44:36.706Z,101718.72
2022-10-11T07:47:04.165Z,101721.66
2022-10-11T07:49:31.958Z,101725.66
2022-10-11T07:51:58.066Z,101722.50
2022-10-11T07:54:24.201Z,101724.09
2022-10-11T07:56:50.299Z,101727.97
2022-10-11T07:59:16.440Z,101721.91
2022-10-11T08:01:42.626Z,101742.06
2022-10-11T08:04:08.770Z,101737.44
2022-10-11T08:06:36.631Z,101731.63
2022-10-11T08:09:03.521Z,101730.41
2022-10-11T08:11:37.922Z,101732.34
2022-10-11T08:14:09.122Z,101735.00
2022-10-11T08:16:36.762Z,101740.13
2022-10-11T08:19:03.400Z,101735.13
2022-10-11T08:21:30.442Z,101740.88
2022-10-11T08:23:56.766Z,101734.06
2022-10-11T08:26:22.866Z,101743.56
2022-10-11T08:28:49.126Z,101738.56
2022-10-11T08:31:16.069Z,101744.50
2022-10-11T08:33:42.322Z,101743.06
2022-10-11T08:36:09.581Z,101743.78
2022-10-11T08:38:37.212Z,101740.59
2022-10-11T08:41:03.993Z,101745.22
2022-10-11T08:43:48.428Z,101751.97
2022-10-11T08:46:15.783Z,101756.75
2022-10-11T08:48:45.744Z,101755.66
2022-10-11T08:51:25.415Z,101753.19
2022-10-11T08:54:04.720Z,101759.66
2022-10-11T08:56:36.906Z,101758.50
2022-10-11T08:59:15.815Z,101767.16
2022-10-11T09:01:49.794Z,101765.56
2022-10-11T09:04:18.042Z,101762.38
2022-10-11T09:07:18.011Z,101763.56
2022-10-11T09:10:03.543Z,101771.44
2022-10-11T09:12:57.944Z,101775.56
2022-10-11T09:15:40.353Z,101770.41
2022-10-11T09:18:34.375Z,101761.47
2022-10-11T09:21:12.757Z,101765.78
2022-10-11T09:24:24.586Z,101768.47
2022-10-11T09:27:19.625Z,101764.19
2022-10-11T09:30:00.127Z,101768.44
2022-10-11T09:32:31.185Z,101765.69
2022-10-11T16:13:19.411Z,101785.91
2022-10-11T16:15:46.774Z,101792.31
2022-10-11T16:18:15.364Z,101795.44
2022-10-11T16:20:44.876Z,101788.53
2022-10-11T16:23:12.192Z,101789.97
2022-10-11T16:25:39.208Z,101797.28
2022-10-11T16:28:08.048Z,101798.13
2022-10-11T16:30:35.289Z,101801.19
2022-10-11T16:33:01.457Z,101801.84
2022-10-11T16:35:32.279Z,101811.00
2022-10-11T16:37:58.798Z,101803.63
2022-10-11T16:40:26.740Z,101815.66
2022-10-11T16:42:52.844Z,101815.19
2022-10-11T16:45:18.982Z,101818.91
2022-10-11T16:47:45.349Z,101816.47
2022-10-11T16:50:11.760Z,101812.19
2022-10-11T16:52:37.880Z,101813.00
2022-10-11T16:55:04.304Z,101819.31
2022-10-11T16:57:30.513Z,101820.25
2022-10-11T16:59:56.641Z,101817.41
2022-10-11T17:02:28.749Z,101820.13
2022-10-11T17:04:57.652Z,101820.81
2022-10-11T17:07:23.826Z,101822.44
2022-10-11T17:09:50.102Z,101824.09
2022-10-11T17:12:18.876Z,101830.81
2022-10-11T17:14:45.041Z,101831.63
2022-10-11T17:17:12.126Z,101834.19
2022-10-11T17:19:45.032Z,101834.84
2022-10-11T17:22:13.044Z,101841.72
2022-10-11T17:24:39.370Z,101841.38
2022-10-11T17:27:06.103Z,101841.06
2022-10-11T17:29:32.717Z,101840.75
2022-10-11T17:31:58.911Z,101838.53
2022-10-11T17:34:25.503Z,101838.09
2022-10-11T17:36:51.723Z,101844.69
2022-10-11T17:39:20.858Z,101840.75
2022-10-11T17:41:47.762Z,101843.19
2022-10-11T17:44:14.587Z,101846.16
2022-10-11T17:46:40.759Z,101853.00
2022-10-11T17:49:08.296Z,101845.41
2022-10-11T17:51:37.997Z,101845.84
2022-10-11T17:54:05.187Z,101848.88
2022-10-11T17:56:36.617Z,101850.19
2022-10-11T17:59:04.002Z,101845.44
2022-10-11T18:01:30.274Z,101852.13
2022-10-11T18:04:02.050Z,101849.88
2022-10-11T18:06:32.147Z,101847.72
2022-10-11T18:09:03.495Z,101847.16
2022-10-11T18:11:31.358Z,101850.88
2022-10-11T18:13:57.622Z,101848.41
2022-10-11T18:16:27.122Z,101846.13
2022-10-11T18:18:53.706Z,101848.13
2022-10-11T18:21:19.806Z,101847.59
2022-10-11T18:23:46.675Z,101850.53
2022-10-11T18:26:21.274Z,101851.78
2022-10-11T18:28:48.617Z,101854.97
2022-10-11T18:31:19.143Z,101853.63
2022-10-11T18:33:46.156Z,101855.72
2022-10-11T18:36:14.845Z,101850.59
2022-10-11T18:38:46.222Z,101853.59
2022-10-11T18:41:14.792Z,101857.41
2022-10-11T18:43:41.680Z,101857.69
2022-10-11T18:46:08.882Z,101858.75
2022-10-11T18:48:35.090Z,101858.00
2022-10-11T18:51:04.225Z,101855.59
2022-10-11T18:53:31.879Z,101853.16
2022-10-11T18:56:00.131Z,101856.06
2022-10-11T18:58:26.258Z,101850.97
2022-10-11T19:00:52.441Z,101846.78
2022-10-11T19:03:18.626Z,101847.88
2022-10-11T19:05:44.729Z,101843.63
2022-10-11T19:08:11.011Z,101850.94
2022-10-11T19:10:37.116Z,101847.41
2022-10-11T19:13:03.242Z,101847.72
2022-10-11T19:15:29.353Z,101852.53
2022-10-11T19:17:55.514Z,101849.19
2022-10-11T19:20:21.934Z,101848.72
2022-10-11T19:22:48.038Z,101855.16
2022-10-11T19:25:14.233Z,101849.19
2022-10-11T19:27:40.355Z,101847.56
2022-10-11T19:30:07.089Z,101848.59
2022-10-11T19:32:33.211Z,101852.13
2022-10-11T19:34:59.318Z,101850.59
2022-10-11T19:37:26.589Z,101848.28
2022-10-11T19:39:52.801Z,101846.81
2022-10-11T19:42:19.120Z,101847.97
2022-10-11T19:44:45.353Z,101861.34
2022-10-11T19:47:11.450Z,101853.56
2022-10-11T19:49:37.562Z,101850.28
2022-10-11T19:52:03.665Z,101855.88
2022-10-11T19:54:29.894Z,101855.03
2022-10-11T19:56:56.107Z,101857.09
2022-10-11T19:59:22.267Z,101853.75
2022-10-11T20:01:52.679Z,101853.84
2022-10-11T20:04:39.961Z,101862.00
2022-10-11T20:07:05.606Z,101863.03
2022-10-11T20:09:31.757Z,101857.97
2022-10-11T20:11:58.310Z,101854.53
2022-10-11T20:14:24.692Z,101856.44
2022-10-11T20:16:51.310Z,101851.97
2022-10-11T20:19:17.918Z,101853.84
2022-10-11T20:21:45.006Z,101855.94
2022-10-11T20:24:11.162Z,101849.94
2022-10-11T20:26:37.481Z,101859.09
2022-10-11T20:29:03.640Z,101864.56
2022-10-11T20:31:33.146Z,101852.41
2022-10-11T20:34:02.436Z,101857.72
2022-10-11T20:36:30.215Z,101857.91
2022-10-11T20:38:57.983Z,101861.56
2022-10-11T20:41:31.659Z,101861.75
2022-10-11T20:43:59.588Z,101868.06
2022-10-11T20:46:28.544Z,101864.75
2022-10-11T20:49:01.307Z,101868.41
2022-10-11T20:51:29.315Z,101871.25
2022-10-11T20:53:56.470Z,101867.91
2022-10-11T20:56:22.809Z,101868.06
2022-10-11T20:58:54.186Z,101861.13
2022-10-11T21:01:22.926Z,101866.59
2022-10-11T21:03:49.234Z,101865.03
2022-10-11T21:06:15.349Z,101872.22
2022-10-11T21:08:41.497Z,101871.47
2022-10-11T21:11:08.884Z,101874.28
2022-10-11T21:13:35.027Z,101874.38
2022-10-11T21:16:10.918Z,101878.78
2022-10-11T21:18:37.441Z,101871.72
2022-10-11T21:21:08.690Z,101878.00
2022-10-11T21:23:35.273Z,101873.75
2022-10-11T21:26:06.714Z,101880.06
2022-10-11T21:28:33.439Z,101873.94
2022-10-11T21:31:07.225Z,101880.16
2022-10-11T21:33:33.591Z,101879.31
2022-10-11T21:36:02.678Z,101884.75
2022-10-11T21:38:28.857Z,101879.63
2022-10-11T21:40:54.972Z,101879.78
2022-10-11T21:43:21.100Z,101880.63
2022-10-11T21:45:47.218Z,101881.47
2022-10-11T21:48:13.318Z,101879.94
2022-10-11T21:50:39.427Z,101880.97
2022-10-11T21:53:05.527Z,101883.53
2022-10-11T21:55:31.642Z,101878.31
2022-10-11T21:57:57.750Z,101877.59
2022-10-11T22:00:25.188Z,101876.84
2022-10-11T22:02:52.210Z,101868.88
2022-10-11T22:05:18.820Z,101877.00
2022-10-11T22:07:45.579Z,101873.59
2022-10-11T22:10:11.680Z,101878.00
2022-10-11T22:12:38.220Z,101879.09
2022-10-11T22:15:04.831Z,101874.84
2022-10-11T22:17:30.935Z,101872.25
2022-10-11T22:19:57.055Z,101871.56
2022-10-11T22:22:23.151Z,101883.09
2022-10-11T22:24:49.262Z,101871.56
2022-10-11T22:27:15.358Z,101869.69
2022-10-11T22:29:41.458Z,101871.47
2022-10-11T22:32:07.703Z,101873.34
2022-10-11T22:34:33.902Z,101867.22
2022-10-11T22:37:00.006Z,101863.84
2022-10-11T22:39:26.130Z,101864.00
2022-10-11T22:41:53.765Z,101869.38
2022-10-11T22:44:19.873Z,101865.09
2022-10-11T22:46:46.494Z,101866.97
2022-10-11T22:49:12.946Z,101875.09
2022-10-11T22:51:39.045Z,101865.50
2022-10-11T22:54:05.179Z,101871.72
2022-10-11T22:56:31.281Z,101868.91
2022-10-11T22:58:58.720Z,101867.53
2022-10-11T23:01:24.818Z,101854.88
2022-10-11T23:03:50.989Z,101861.22
2022-10-11T23:06:17.680Z,101857.16
2022-10-11T23:08:44.502Z,101862.78
2022-10-11T23:11:11.348Z,101860.56
2022-10-11T23:13:37.473Z,101869.63
2022-10-11T23:16:11.393Z,101859.28
2022-10-11T23:18:37.709Z,101863.00
2022-10-11T23:21:05.205Z,101863.94
2022-10-11T23:23:31.846Z,101865.88
2022-10-11T23:26:02.818Z,101868.50
2022-10-11T23:28:28.933Z,101865.94
2022-10-11T23:30:55.033Z,101873.03
2022-10-11T23:33:21.137Z,101867.03
2022-10-11T23:35:47.232Z,101869.78
2022-10-11T23:38:13.342Z,101873.41
2022-10-11T23:40:39.621Z,101872.41
2022-10-11T23:43:05.774Z,101873.34
2022-10-11T23:45:31.877Z,101872.69
2022-10-11T23:47:57.998Z,101875.44
2022-10-11T23:50:24.190Z,101866.00
2022-10-11T23:52:50.415Z,101871.22
2022-10-11T23:55:16.685Z,101875.66
2022-10-11T23:57:42.802Z,101880.16
